createdAt,value
2018-06-13T00:01:00.115Z,46.00
2018-06-13T00:03:28.510Z,45.90
2018-06-13T00:05:56.731Z,45.10
2018-06-13T00:08:25.144Z,45.50
2018-06-13T00:10:53.483Z,45.50
2018-06-13T00:36:15.674Z,45.70
2018-06-13T00:41:12.314Z,45.10
2018-06-13T00:46:08.767Z,45.60
2018-06-13T00:48:37.037Z,45.10
2018-06-13T00:51:05.266Z,45.80
2018-06-13T00:53:33.550Z,45.30
2018-06-13T00:56:13.330Z,45.40
2018-06-13T00:58:41.599Z,44.90
2018-06-13T01:01:09.968Z,45.20
2018-06-13T01:03:39.019Z,45.30
2018-06-13T01:06:07.213Z,45.30
2018-06-13T01:08:37.137Z,45.40
2018-06-13T01:11:05.656Z,45.10
2018-06-13T01:13:33.874Z,45.10
2018-06-13T01:16:02.075Z,44.80
2018-06-13T01:18:30.310Z,45.10
2018-06-13T01:20:58.557Z,45.20
2018-06-13T01:23:26.785Z,45.10
2018-06-13T01:25:55.240Z,44.60
2018-06-13T01:28:23.456Z,44.50
2018-06-13T01:30:51.766Z,45.20
2018-06-13T01:33:19.990Z,44.50
2018-06-13T01:38:16.336Z,44.30
2018-06-13T01:40:44.538Z,44.70
2018-06-13T01:43:12.770Z,45.60
2018-06-13T01:45:41.230Z,44.80
2018-06-13T01:48:09.521Z,44.50
2018-06-13T01:53:06.034Z,44.70
2018-06-13T01:55:34.249Z,44.80
2018-06-13T01:58:02.729Z,44.50
2018-06-13T02:00:30.915Z,44.80
2018-06-13T02:02:59.125Z,44.70
2018-06-13T02:05:27.410Z,43.90
2018-06-13T02:07:55.686Z,43.90
2018-06-13T02:10:23.909Z,44.50
2018-06-13T02:12:52.177Z,44.00
2018-06-13T02:15:20.397Z,44.20
2018-06-13T02:17:48.650Z,44.00
2018-06-13T02:22:44.937Z,44.20
2018-06-13T02:25:13.167Z,43.80
2018-06-13T02:30:09.619Z,43.90
2018-06-13T02:32:40.835Z,43.90
2018-06-13T02:35:09.254Z,43.50
2018-06-13T02:37:37.460Z,43.40
2018-06-13T02:40:05.985Z,43.90
2018-06-13T02:42:34.225Z,44.30
2018-06-13T02:45:02.626Z,43.90
2018-06-13T02:47:30.920Z,42.80
2018-06-13T02:49:59.093Z,43.60
2018-06-13T02:52:27.409Z,43.70
2018-06-13T02:54:55.790Z,43.40
2018-06-13T02:57:24.042Z,43.70
2018-06-13T02:59:52.267Z,43.50
2018-06-13T03:02:20.463Z,43.30
2018-06-13T03:04:48.694Z,43.10
2018-06-13T03:07:17.277Z,42.90
2018-06-13T03:09:45.506Z,42.90
2018-06-13T03:12:13.768Z,43.30
2018-06-13T03:14:41.983Z,42.90
2018-06-13T03:17:10.377Z,43.00
2018-06-13T03:19:38.625Z,42.80
2018-06-13T03:22:06.865Z,42.60
2018-06-13T03:24:35.128Z,42.50
2018-06-13T03:27:03.882Z,43.30
2018-06-13T03:29:32.746Z,43.10
2018-06-13T03:32:02.132Z,42.90
2018-06-13T03:34:30.301Z,42.80
2018-06-13T03:36:58.520Z,42.90
2018-06-13T03:39:26.885Z,43.40
2018-06-13T03:41:56.148Z,43.50
2018-06-13T03:44:24.949Z,43.70
2018-06-13T03:46:53.146Z,42.50
2018-06-13T03:49:21.392Z,42.80
2018-06-13T03:51:49.590Z,43.60
2018-06-13T03:54:18.394Z,43.70
2018-06-13T03:59:15.174Z,43.90
2018-06-13T04:01:43.419Z,43.80
2018-06-13T04:04:11.628Z,43.80
2018-06-13T04:06:40.095Z,44.40
2018-06-13T04:09:08.323Z,44.60
2018-06-13T04:11:36.547Z,45.30
2018-06-13T04:16:32.762Z,44.40
2018-06-13T04:19:00.998Z,45.00
2018-06-13T04:21:29.426Z,44.40
2018-06-13T04:23:57.634Z,44.30
2018-06-13T04:26:25.869Z,44.20
2018-06-13T04:28:54.799Z,44.90
2018-06-13T04:31:23.002Z,44.80
2018-06-13T04:33:51.286Z,45.60
2018-06-13T04:36:19.478Z,44.40
2018-06-13T04:38:48.401Z,44.60
2018-06-13T04:43:44.733Z,44.90
2018-06-13T04:46:12.950Z,45.30
2018-06-13T04:48:41.394Z,45.40
2018-06-13T04:51:09.626Z,45.40
2018-06-13T04:53:37.829Z,45.10
2018-06-13T04:56:06.052Z,44.60
2018-06-13T04:58:34.365Z,45.00
2018-06-13T05:01:02.706Z,44.90
2018-06-13T05:03:30.986Z,44.70
2018-06-13T05:05:59.251Z,45.20
2018-06-13T05:08:27.458Z,45.30
2018-06-13T05:10:55.842Z,45.20
2018-06-13T05:13:24.090Z,45.20
2018-06-13T05:18:20.883Z,44.20
2018-06-13T05:20:49.095Z,44.10
2018-06-13T05:23:17.304Z,44.00
2018-06-13T05:25:45.500Z,43.60
2018-06-13T05:28:13.818Z,44.00
2018-06-13T05:30:42.081Z,44.50
2018-06-13T05:33:10.374Z,43.60
2018-06-13T05:35:38.561Z,43.80
2018-06-13T05:38:06.765Z,43.80
2018-06-13T05:43:03.638Z,43.10
2018-06-13T05:45:31.830Z,43.30
2018-06-13T05:48:00.347Z,43.00
2018-06-13T05:50:28.550Z,43.00
2018-06-13T05:52:56.867Z,43.60
2018-06-13T05:55:25.125Z,43.60
2018-06-13T05:57:56.849Z,43.50
2018-06-13T06:00:25.121Z,43.80
2018-06-13T06:02:53.354Z,43.70
2018-06-13T06:05:21.559Z,43.90
2018-06-13T06:07:49.770Z,44.20
2018-06-13T06:10:18.203Z,44.30
2018-06-13T06:12:46.354Z,44.20
2018-06-13T06:15:14.571Z,44.30
2018-06-13T06:17:42.756Z,44.20
2018-06-13T06:20:11.061Z,44.30
2018-06-13T06:22:39.341Z,44.00
2018-06-13T06:25:07.547Z,44.10
2018-06-13T06:27:35.761Z,44.70
2018-06-13T06:30:04.031Z,43.50
2018-06-13T06:32:32.281Z,43.80
2018-06-13T06:35:00.473Z,44.30
2018-06-13T06:37:28.690Z,43.80
2018-06-13T06:39:56.889Z,44.80
2018-06-13T06:42:25.185Z,45.20
2018-06-13T06:44:53.398Z,44.80
2018-06-13T06:47:21.598Z,44.20
2018-06-13T06:49:49.838Z,44.30
2018-06-13T06:52:18.525Z,44.60
2018-06-13T06:54:46.987Z,45.80
2018-06-13T06:57:15.211Z,45.70
2018-06-13T06:59:43.421Z,45.80
2018-06-13T07:02:11.649Z,45.20
2018-06-13T07:04:40.030Z,44.90
2018-06-13T07:07:08.294Z,44.50
2018-06-13T07:09:36.497Z,45.40
2018-06-13T07:12:04.693Z,44.40
2018-06-13T07:14:32.999Z,44.80
2018-06-13T07:17:01.503Z,44.80
2018-06-13T07:19:29.685Z,45.20
2018-06-13T07:21:57.958Z,45.70
2018-06-13T07:24:26.262Z,45.70
2018-06-13T07:26:54.521Z,46.00
2018-06-13T07:29:22.744Z,46.00
2018-06-13T07:31:50.949Z,45.70
2018-06-13T07:34:20.180Z,45.10
2018-06-13T07:36:48.429Z,45.00
2018-06-13T07:39:16.715Z,44.90
2018-06-13T07:41:44.927Z,45.00
2018-06-13T07:44:13.118Z,45.70
2018-06-13T07:46:42.359Z,44.10
2018-06-13T07:49:10.676Z,43.90
2018-06-13T07:51:39.615Z,42.50
2018-06-13T07:54:07.830Z,42.50
2018-06-13T07:56:36.124Z,42.20
2018-06-13T07:59:04.325Z,41.40
2018-06-13T08:01:32.681Z,42.00
2018-06-13T08:04:00.906Z,41.00
2018-06-13T08:06:29.463Z,41.70
2018-06-13T08:08:57.725Z,41.70
2018-06-13T08:11:25.958Z,42.00
2018-06-13T08:13:54.252Z,41.60
2018-06-13T08:16:22.489Z,41.60
2018-06-13T08:18:51.213Z,41.70
2018-06-13T08:21:19.489Z,41.10
2018-06-13T08:23:47.886Z,41.00
2018-06-13T08:31:12.410Z,40.70
2018-06-13T08:33:40.938Z,40.70
2018-06-13T08:36:09.141Z,41.10
2018-06-13T08:38:37.361Z,41.30
2018-06-13T08:41:05.595Z,41.80
2018-06-13T08:43:34.950Z,41.20
2018-06-13T08:46:03.397Z,40.60
2018-06-13T08:48:31.814Z,39.60
2018-06-13T08:51:00.018Z,40.00
2018-06-13T08:53:28.210Z,40.40
2018-06-13T08:55:56.585Z,39.40
2018-06-13T08:58:24.885Z,39.10
2018-06-13T09:00:53.110Z,37.90
2018-06-13T09:03:21.392Z,37.80
2018-06-13T09:05:49.735Z,38.30
2018-06-13T09:08:17.990Z,38.30
2018-06-13T09:10:46.295Z,38.40
2018-06-13T09:13:14.538Z,37.50
2018-06-13T09:15:42.723Z,37.00
2018-06-13T09:18:11.289Z,36.70
2018-06-13T09:20:39.576Z,36.90
2018-06-13T09:23:07.794Z,36.60
2018-06-13T09:25:36.075Z,37.50
2018-06-13T09:28:04.406Z,38.70
2018-06-13T09:30:33.605Z,37.70
2018-06-13T09:33:01.931Z,37.90
2018-06-13T09:35:30.169Z,37.90
2018-06-13T09:37:58.502Z,38.50
2018-06-13T09:40:27.746Z,38.00
2018-06-13T09:45:24.635Z,37.40
2018-06-13T09:47:53.558Z,36.40
2018-06-13T09:50:21.765Z,36.90
2018-06-13T09:52:50.043Z,36.80
2018-06-13T09:55:18.781Z,36.30
2018-06-13T09:57:47.130Z,36.10
2018-06-13T10:00:20.718Z,36.30
2018-06-13T10:02:49.170Z,36.80
2018-06-13T10:05:17.394Z,37.20
2018-06-13T10:07:45.750Z,36.90
2018-06-13T10:10:15.045Z,37.70
2018-06-13T10:12:43.264Z,37.10
2018-06-13T10:15:11.541Z,36.70
2018-06-13T10:17:39.782Z,37.30
2018-06-13T10:20:07.998Z,36.60
2018-06-13T10:22:36.338Z,36.50
2018-06-13T10:25:04.550Z,35.90
2018-06-13T10:27:39.078Z,34.70
2018-06-13T10:30:07.314Z,33.80
2018-06-13T10:35:03.820Z,30.70
2018-06-13T10:37:32.117Z,30.60
2018-06-13T10:40:00.373Z,30.20
2018-06-13T10:42:28.548Z,30.70
2018-06-13T10:44:56.789Z,29.60
2018-06-13T10:47:25.052Z,30.20
2018-06-13T10:49:53.267Z,31.70
2018-06-13T10:52:21.451Z,32.10
2018-06-13T10:54:49.777Z,32.70
2018-06-13T10:57:18.994Z,33.80
2018-06-13T10:59:47.268Z,33.40
2018-06-13T11:02:15.561Z,33.40
2018-06-13T11:04:43.803Z,34.00
2018-06-13T11:07:12.068Z,33.80
2018-06-13T11:09:40.543Z,33.70
2018-06-13T11:12:08.763Z,34.20
2018-06-13T11:14:36.981Z,34.00
2018-06-13T11:17:05.269Z,35.60
2018-06-13T11:19:33.616Z,35.00
2018-06-13T11:22:02.514Z,34.50
2018-06-13T11:24:30.825Z,34.90
2018-06-13T11:26:59.106Z,34.30
2018-06-13T11:29:27.306Z,34.60
2018-06-13T11:31:55.663Z,34.70
2018-06-13T11:34:24.073Z,34.10
2018-06-13T11:36:52.746Z,34.80
2018-06-13T11:39:20.952Z,34.30
2018-06-13T11:41:49.542Z,33.80
2018-06-13T11:44:17.887Z,34.40
2018-06-13T11:46:46.126Z,34.20
2018-06-13T11:49:14.322Z,33.80
2018-06-13T11:51:42.562Z,33.20
2018-06-13T11:54:11.314Z,34.40
2018-06-13T11:56:39.651Z,33.80
2018-06-13T11:59:07.858Z,34.00
2018-06-13T12:01:36.071Z,33.90
2018-06-13T12:04:04.308Z,34.30
2018-06-13T12:06:32.630Z,34.40
2018-06-13T12:09:00.909Z,34.60
2018-06-13T12:11:29.168Z,35.10
2018-06-13T12:13:57.358Z,35.00
2018-06-13T12:16:25.654Z,35.00
2018-06-13T12:18:54.260Z,35.60
2018-06-13T12:21:22.517Z,35.00
2018-06-13T12:23:50.736Z,34.80
2018-06-13T12:26:19.329Z,34.60
2018-06-13T12:28:47.657Z,35.10
2018-06-13T12:31:15.842Z,34.40
2018-06-13T12:33:44.064Z,34.70
2018-06-13T12:36:12.270Z,35.10
2018-06-13T12:38:41.202Z,35.10
2018-06-13T12:41:10.087Z,34.50
2018-06-13T12:43:38.293Z,34.20
2018-06-13T12:46:06.518Z,34.60
2018-06-13T12:48:34.749Z,34.30
2018-06-13T12:51:03.996Z,34.00
2018-06-13T12:53:32.237Z,32.80
2018-06-13T12:56:00.514Z,32.80
2018-06-13T12:58:28.674Z,32.50
2018-06-13T13:00:56.889Z,32.40
2018-06-13T13:03:25.127Z,31.50
2018-06-13T13:05:53.446Z,30.00
2018-06-13T13:08:21.661Z,29.00
2018-06-13T13:10:49.862Z,28.60
2018-06-13T13:13:18.905Z,28.70
2018-06-13T13:15:47.514Z,28.40
2018-06-13T13:18:15.703Z,29.10
2018-06-13T13:20:43.908Z,29.00
2018-06-13T13:23:12.095Z,29.30
2018-06-13T13:25:41.205Z,29.60
2018-06-13T13:28:10.171Z,30.10
2018-06-13T13:30:38.362Z,30.20
2018-06-13T13:33:06.572Z,30.80
2018-06-13T13:35:34.804Z,31.10
2018-06-13T13:38:03.217Z,31.80
2018-06-13T13:40:31.433Z,32.10
2018-06-13T13:42:59.642Z,32.10
2018-06-13T13:45:27.924Z,32.80
2018-06-13T13:49:22.805Z,33.10
2018-06-13T13:51:51.044Z,33.30
2018-06-13T13:54:20.270Z,33.30
2018-06-13T13:56:48.699Z,34.60
2018-06-13T13:59:16.996Z,33.80
2018-06-13T14:01:45.241Z,34.10
2018-06-13T14:04:13.478Z,33.20
2018-06-13T14:06:41.702Z,33.40
2018-06-13T14:09:11.357Z,32.90
2018-06-13T14:11:39.855Z,32.90
2018-06-13T14:14:08.162Z,32.70
2018-06-13T14:16:36.698Z,32.90
2018-06-13T14:19:04.933Z,33.40
2018-06-13T14:21:33.851Z,33.40
2018-06-13T14:24:02.551Z,33.40
2018-06-13T14:26:30.837Z,32.70
2018-06-13T14:28:59.149Z,31.90
2018-06-13T14:31:27.394Z,31.80
2018-06-13T14:33:55.946Z,32.50
2018-06-13T14:38:52.234Z,32.50
2018-06-13T14:41:20.454Z,31.00
2018-06-13T14:43:48.862Z,31.60
2018-06-13T14:46:18.417Z,29.40
2018-06-13T14:48:47.486Z,28.30
2018-06-13T14:51:15.728Z,27.90
2018-06-13T14:53:43.954Z,27.20
2018-06-13T14:56:17.686Z,26.80
2018-06-13T14:58:45.937Z,26.30
2018-06-13T15:01:14.170Z,26.40
2018-06-13T15:03:42.372Z,27.50
2018-06-13T15:06:11.462Z,27.50
2018-06-13T15:08:39.773Z,28.40
2018-06-13T15:11:08.483Z,29.20
2018-06-13T15:13:36.719Z,30.00
2018-06-13T15:16:05.478Z,30.00
2018-06-13T15:18:33.800Z,30.40
2018-06-13T15:21:02.150Z,30.40
2018-06-13T15:23:30.401Z,31.30
2018-06-13T15:28:27.253Z,31.20
2018-06-13T15:30:55.720Z,32.10
2018-06-13T15:33:24.266Z,32.30
2018-06-13T15:35:52.497Z,33.00
2018-06-13T15:38:20.705Z,32.80
2018-06-13T15:40:49.043Z,33.20
2018-06-13T15:43:17.663Z,33.70
2018-06-13T15:45:46.006Z,34.00
2018-06-13T15:48:14.226Z,33.20
2018-06-13T15:50:42.430Z,33.50
2018-06-13T15:53:10.845Z,33.60
2018-06-13T15:55:39.121Z,33.90
2018-06-13T15:58:07.322Z,33.60
2018-06-13T16:00:35.616Z,34.00
2018-06-13T16:03:04.042Z,33.30
2018-06-13T16:05:32.857Z,33.40
2018-06-13T16:08:01.019Z,33.90
2018-06-13T16:10:29.543Z,33.70
2018-06-13T16:12:57.751Z,33.90
2018-06-13T16:15:26.046Z,34.10
2018-06-13T16:17:54.611Z,34.00
2018-06-13T16:20:22.842Z,34.30
2018-06-13T16:22:51.269Z,35.00
2018-06-13T16:25:19.695Z,36.70
2018-06-13T16:27:48.437Z,35.00
2018-06-13T16:30:17.575Z,34.60
2018-06-13T16:32:46.300Z,34.70
2018-06-13T16:35:14.578Z,34.20
2018-06-13T16:37:42.890Z,33.80
2018-06-13T16:40:11.166Z,34.00
2018-06-13T16:42:39.939Z,34.30
2018-06-13T16:45:08.175Z,34.40
2018-06-13T16:47:36.401Z,34.40
2018-06-13T16:50:16.966Z,34.60
2018-06-13T16:55:18.854Z,34.70
2018-06-13T16:57:47.860Z,35.00
2018-06-13T17:00:16.284Z,35.30
2018-06-13T17:02:44.530Z,35.90
2018-06-13T17:05:13.300Z,36.00
2018-06-13T17:08:06.547Z,35.90
2018-06-13T17:13:25.670Z,35.00
2018-06-13T17:16:16.079Z,35.80
2018-06-13T17:19:04.649Z,35.60
2018-06-13T17:21:45.909Z,35.90
2018-06-13T17:24:14.262Z,35.40
2018-06-13T17:26:42.874Z,35.90
2018-06-13T17:29:11.751Z,35.10
2018-06-13T17:34:08.121Z,35.40
2018-06-13T17:36:36.370Z,35.00
2018-06-13T17:39:07.211Z,35.70
2018-06-13T17:41:35.454Z,35.10
2018-06-13T17:44:04.786Z,35.50
2018-06-13T17:46:33.295Z,35.60
2018-06-13T17:49:01.517Z,37.10
2018-06-13T17:51:29.742Z,35.60
2018-06-13T17:53:57.980Z,35.00
2018-06-13T17:56:27.577Z,34.40
2018-06-13T17:58:56.851Z,34.10
2018-06-13T18:01:26.204Z,34.10
2018-06-13T18:03:54.836Z,34.30
2018-06-13T18:06:23.278Z,35.20
2018-06-13T18:08:51.696Z,34.30
2018-06-13T18:11:20.781Z,34.70
2018-06-13T18:13:49.570Z,34.60
2018-06-13T18:16:17.962Z,34.30
2018-06-13T18:18:46.192Z,34.90
2018-06-13T18:23:42.446Z,34.70
2018-06-13T18:26:10.830Z,35.10
2018-06-13T18:28:40.449Z,34.90
2018-06-13T18:31:08.634Z,34.90
2018-06-13T18:36:05.245Z,35.20
2018-06-13T18:38:33.670Z,35.30
2018-06-13T18:41:02.007Z,34.40
2018-06-13T18:43:30.348Z,34.70
2018-06-13T18:45:58.622Z,34.60
2018-06-13T18:48:26.926Z,35.10
2018-06-13T18:50:55.184Z,35.00
2018-06-13T18:53:25.931Z,35.50
2018-06-13T18:55:56.077Z,36.20
2018-06-13T19:00:52.426Z,35.40
2018-06-13T19:03:20.883Z,34.80
2018-06-13T19:05:49.651Z,35.70
2018-06-13T19:08:18.237Z,35.90
2018-06-13T19:10:46.502Z,36.10
2018-06-13T19:13:14.913Z,36.60
2018-06-13T19:15:43.137Z,36.00
2018-06-13T19:18:11.419Z,36.60
2018-06-13T19:20:39.749Z,36.10
2018-06-13T19:23:07.939Z,37.30
2018-06-13T19:25:36.186Z,36.90
2018-06-13T19:28:04.739Z,37.00
2018-06-13T19:30:33.251Z,36.90
2018-06-13T19:33:01.531Z,37.60
2018-06-13T19:35:29.878Z,37.10
2018-06-13T19:37:58.234Z,37.30
2018-06-13T19:40:26.811Z,37.90
2018-06-13T19:42:55.374Z,36.70
2018-06-13T19:45:23.690Z,36.80
2018-06-13T19:47:57.239Z,36.90
2018-06-13T19:50:25.571Z,38.40
2018-06-13T19:52:59.266Z,37.10
2018-06-13T19:55:33.982Z,37.70
2018-06-13T19:58:03.227Z,37.10
2018-06-13T20:00:32.548Z,37.20
2018-06-13T20:03:06.686Z,37.80
2018-06-13T20:05:40.147Z,37.20
2018-06-13T20:08:08.367Z,37.70
2018-06-13T20:10:36.675Z,37.10
2018-06-13T20:13:11.025Z,37.00
2018-06-13T20:15:44.765Z,37.40
2018-06-13T20:18:18.652Z,37.40
2018-06-13T20:20:48.865Z,37.50
2018-06-13T20:23:23.842Z,37.40
2018-06-13T20:25:57.531Z,38.70
2018-06-13T20:28:31.271Z,38.30
2018-06-13T20:31:05.044Z,37.70
2018-06-13T20:33:34.010Z,37.60
2018-06-13T20:36:02.434Z,39.00
2018-06-13T20:38:30.991Z,38.90
2018-06-13T20:40:59.278Z,38.40
2018-06-13T20:43:27.721Z,37.90
2018-06-13T20:45:56.240Z,37.60
2018-06-13T20:48:26.335Z,38.40
2018-06-13T20:50:54.513Z,37.90
2018-06-13T20:53:22.794Z,37.80
2018-06-13T20:55:55.447Z,38.10
2018-06-13T20:58:24.172Z,39.40
2018-06-13T21:00:52.550Z,39.40
2018-06-13T21:03:22.569Z,39.30
2018-06-13T21:05:50.867Z,39.70
2018-06-13T21:08:20.438Z,39.50
2018-06-13T21:11:07.314Z,38.70
2018-06-13T21:13:37.473Z,38.50
2018-06-13T21:16:07.047Z,38.40
2018-06-13T21:18:35.449Z,38.40
2018-06-13T21:21:04.494Z,38.50
2018-06-13T21:23:32.963Z,39.60
2018-06-13T21:26:01.558Z,39.60
2018-06-13T21:28:30.008Z,38.90
2018-06-13T21:30:58.448Z,38.90
2018-06-13T21:33:26.986Z,39.00
2018-06-13T21:35:55.396Z,38.60
2018-06-13T21:38:23.891Z,38.90
2018-06-13T21:40:52.229Z,39.50
2018-06-13T21:43:20.513Z,39.70
2018-06-13T21:45:49.299Z,39.70
2018-06-13T21:48:18.305Z,38.80
2018-06-13T21:50:47.941Z,38.30
2018-06-13T21:53:16.166Z,39.20
2018-06-13T21:55:44.421Z,39.70
2018-06-13T21:58:12.997Z,40.10
2018-06-13T22:00:41.722Z,40.10
2018-06-13T22:03:10.689Z,39.40
2018-06-13T22:05:39.098Z,39.20
2018-06-13T22:08:07.741Z,39.60
2018-06-13T22:10:36.017Z,39.90
2018-06-13T22:13:04.947Z,40.00
2018-06-13T22:15:33.362Z,40.40
2018-06-13T22:18:01.600Z,39.90
2018-06-13T22:20:30.646Z,41.10
2018-06-13T22:22:58.873Z,40.00
2018-06-13T22:25:28.493Z,39.70
2018-06-13T22:27:57.291Z,40.60
2018-06-13T22:30:26.145Z,40.60
2018-06-13T22:32:54.645Z,40.10
2018-06-13T22:35:22.950Z,40.00
2018-06-13T22:37:52.487Z,39.50
2018-06-13T22:40:20.697Z,39.70
2018-06-13T22:42:49.694Z,39.80
2018-06-13T22:45:18.089Z,40.60
2018-06-13T22:47:46.474Z,40.20
2018-06-13T22:50:14.722Z,40.00
2018-06-13T22:52:43.112Z,40.20
2018-06-13T22:55:11.564Z,40.50
2018-06-13T22:57:39.884Z,40.70
2018-06-13T23:00:08.333Z,41.10
2018-06-13T23:02:36.595Z,41.40
2018-06-13T23:05:04.926Z,41.10
2018-06-13T23:07:34.189Z,40.50
2018-06-13T23:10:03.084Z,40.60
2018-06-13T23:12:31.376Z,41.40
2018-06-13T23:14:59.612Z,40.90
2018-06-13T23:17:28.650Z,40.60
2018-06-13T23:19:56.943Z,40.00
2018-06-13T23:22:25.366Z,41.10
2018-06-13T23:24:53.654Z,41.80
2018-06-13T23:27:21.893Z,40.70
2018-06-13T23:29:50.126Z,41.20
2018-06-13T23:32:18.791Z,41.10
2018-06-13T23:34:47.225Z,40.90
2018-06-13T23:37:15.447Z,42.10
2018-06-13T23:39:43.740Z,41.20
2018-06-13T23:42:12.187Z,40.80
2018-06-13T23:44:40.710Z,41.00
2018-06-13T23:47:09.066Z,41.20
2018-06-13T23:49:37.363Z,41.70
2018-06-13T23:52:05.715Z,41.00
2018-06-13T23:54:34.170Z,41.00
2018-06-13T23:57:02.649Z,40.90
2018-06-13T23:59:30.956Z,40.90
